createdAt,value
2022-08-11T00:02:15.362Z,54.24
2022-08-11T00:07:13.540Z,54.38
2022-08-11T00:12:14.246Z,54.46
2022-08-11T00:17:15.051Z,54.68
2022-08-11T00:22:15.746Z,54.89
2022-08-11T00:27:16.431Z,55.10
2022-08-11T00:32:17.076Z,55.34
2022-08-11T00:37:20.289Z,55.49
2022-08-11T00:42:20.950Z,55.77
2022-08-11T00:47:21.687Z,55.95
2022-08-11T00:52:27.862Z,56.22
2022-08-11T00:57:36.578Z,56.33
2022-08-11T01:02:23.858Z,56.59
2022-08-11T01:07:58.893Z,56.79
2022-08-11T01:12:29.885Z,56.92
2022-08-11T01:17:26.063Z,57.01
2022-08-11T01:22:31.570Z,57.16
2022-08-11T01:27:27.414Z,57.32
2022-08-11T01:32:28.150Z,57.51
2022-08-11T01:37:32.104Z,57.64
2022-08-11T01:42:32.695Z,57.78
2022-08-11T01:47:33.367Z,57.87
2022-08-11T01:52:34.946Z,58.05
2022-08-11T01:57:34.449Z,58.13
2022-08-11T02:02:35.110Z,58.24
2022-08-11T02:07:36.702Z,58.37
2022-08-11T02:12:52.739Z,58.49
2022-08-11T02:17:43.923Z,58.64
2022-08-11T02:23:13.652Z,58.77
2022-08-11T02:26:36.829Z,58.97
2022-08-11T02:32:10.943Z,59.22
2022-08-11T02:36:37.154Z,59.40
2022-08-11T02:41:38.725Z,59.47
2022-08-11T02:46:38.661Z,59.65
2022-08-11T02:51:39.340Z,59.74
2022-08-11T02:56:39.960Z,59.85
2022-08-11T03:01:40.714Z,59.94
2022-08-11T03:06:41.461Z,60.15
2022-08-11T03:11:42.132Z,60.28
2022-08-11T03:16:42.939Z,60.41
2022-08-11T03:21:50.646Z,60.59
2022-08-11T03:26:44.373Z,60.70
2022-08-11T03:31:45.082Z,60.76
2022-08-11T03:36:55.738Z,60.88
2022-08-11T03:41:49.483Z,60.95
2022-08-11T03:46:47.167Z,61.07
2022-08-11T03:51:51.632Z,61.14
2022-08-11T03:56:48.580Z,61.38
2022-08-11T04:01:49.298Z,61.51
2022-08-11T04:06:54.510Z,61.60
2022-08-11T04:11:50.672Z,61.73
2022-08-11T04:16:51.317Z,61.97
2022-08-11T04:21:54.899Z,62.08
2022-08-11T04:26:55.512Z,62.27
2022-08-11T04:31:56.611Z,62.42
2022-08-11T04:36:56.977Z,62.28
2022-08-11T04:41:57.663Z,62.50
2022-08-11T04:46:58.382Z,62.56
2022-08-11T04:51:59.635Z,62.44
2022-08-11T04:57:03.038Z,62.17
2022-08-11T05:02:03.402Z,61.85
2022-08-11T05:07:04.116Z,61.53
2022-08-11T05:12:05.983Z,60.95
2022-08-11T05:17:06.407Z,61.04
2022-08-11T05:22:18.673Z,61.10
2022-08-11T05:27:13.739Z,61.04
2022-08-11T05:32:11.731Z,61.34
2022-08-11T05:37:26.017Z,61.29
2022-08-11T05:42:20.997Z,61.28
2022-08-11T05:47:17.818Z,61.29
2022-08-11T05:52:16.434Z,61.52
2022-08-11T05:57:48.881Z,62.44
2022-08-11T06:02:15.275Z,62.80
2022-08-11T06:07:15.764Z,62.87
2022-08-11T06:12:16.410Z,63.11
2022-08-11T06:17:17.565Z,63.22
2022-08-11T06:22:18.283Z,63.28
2022-08-11T06:27:18.958Z,63.12
2022-08-11T06:32:59.138Z,63.45
2022-08-11T06:37:22.663Z,63.46
2022-08-11T06:42:28.556Z,63.50
2022-08-11T06:47:24.571Z,63.38
2022-08-11T06:52:35.996Z,63.32
2022-08-11T06:57:30.421Z,63.19
2022-08-11T07:02:30.602Z,63.11
2022-08-11T07:07:27.147Z,62.88
2022-08-11T07:12:28.212Z,62.92
2022-08-11T07:17:29.072Z,62.83
2022-08-11T07:22:30.172Z,62.93
2022-08-11T07:27:35.564Z,62.90
2022-08-11T07:32:34.692Z,62.73
2022-08-11T07:37:34.150Z,62.62
2022-08-11T07:42:34.909Z,62.50
2022-08-11T07:47:45.123Z,62.38
2022-08-11T07:52:36.839Z,62.25
2022-08-11T07:57:50.183Z,62.12
2022-08-11T08:02:42.564Z,61.98
2022-08-11T08:07:38.256Z,61.51
2022-08-11T08:12:40.034Z,61.12
2022-08-11T08:17:39.589Z,60.48
2022-08-11T08:22:46.446Z,60.38
2022-08-11T08:27:43.736Z,59.70
2022-08-11T08:32:45.354Z,59.34
2022-08-11T08:37:47.401Z,59.30
2022-08-11T08:42:45.929Z,58.99
2022-08-11T08:47:49.876Z,58.50
2022-08-11T08:52:47.799Z,57.67
2022-08-11T08:57:48.114Z,57.32
2022-08-11T09:02:51.047Z,56.91
2022-08-11T09:07:49.204Z,56.33
2022-08-11T09:12:49.968Z,56.26
2022-08-11T09:17:53.264Z,55.95
2022-08-11T09:28:27.919Z,55.48
2022-08-11T09:33:00.971Z,54.79
2022-08-11T09:37:56.556Z,54.48
2022-08-11T09:42:56.977Z,53.52
2022-08-11T09:48:01.942Z,53.00
2022-08-11T09:53:34.735Z,52.60
2022-08-11T09:58:03.819Z,51.86
2022-08-11T10:03:04.531Z,51.07
2022-08-11T10:08:05.756Z,50.30
2022-08-11T10:13:06.210Z,50.12
2022-08-11T10:18:07.067Z,50.33
2022-08-11T10:23:07.387Z,50.43
2022-08-11T10:28:17.369Z,50.13
2022-08-11T10:33:08.884Z,48.74
2022-08-11T10:38:12.289Z,48.95
2022-08-11T10:43:56.761Z,49.25
2022-08-11T10:48:15.582Z,48.86
2022-08-11T10:53:14.416Z,49.05
2022-08-11T10:58:14.439Z,48.72
2022-08-11T11:03:22.499Z,48.30
2022-08-11T11:16:28.729Z,47.11
2022-08-11T11:21:31.155Z,46.98
2022-08-11T11:26:33.117Z,46.94
2022-08-11T11:31:47.760Z,46.98
2022-08-11T11:36:34.451Z,46.82
2022-08-11T11:41:40.291Z,46.64
2022-08-11T11:46:38.628Z,46.72
2022-08-11T11:51:39.583Z,46.39
2022-08-11T11:56:45.663Z,45.47
2022-08-11T12:01:50.229Z,45.21
2022-08-11T12:06:49.656Z,44.58
2022-08-11T12:11:40.722Z,44.47
2022-08-11T12:16:51.057Z,44.37
2022-08-11T12:21:50.993Z,43.37
2022-08-11T12:26:54.447Z,43.76
2022-08-11T12:31:56.302Z,43.36
2022-08-11T12:36:53.284Z,43.30
2022-08-11T12:41:44.032Z,43.07
2022-08-11T12:46:47.583Z,42.71
2022-08-11T12:52:01.161Z,42.33
2022-08-11T12:56:54.371Z,41.38
2022-08-11T13:01:49.021Z,41.87
2022-08-11T13:06:50.386Z,41.35
2022-08-11T13:11:54.795Z,41.44
2022-08-11T13:16:51.283Z,40.97
2022-08-11T13:21:57.208Z,40.52
2022-08-11T13:26:57.160Z,40.58
2022-08-11T13:31:55.572Z,40.32
2022-08-11T13:36:56.577Z,40.20
2022-08-11T13:41:57.134Z,39.76
2022-08-11T13:47:03.235Z,39.73
2022-08-11T13:51:59.593Z,39.36
2022-08-11T13:56:58.842Z,38.92
2022-08-11T14:02:04.267Z,39.00
2022-08-11T14:07:05.365Z,38.64
2022-08-11T14:12:20.674Z,38.70
2022-08-11T14:17:02.144Z,38.44
2022-08-11T14:22:07.532Z,38.54
2022-08-11T14:28:30.689Z,38.17
2022-08-11T14:32:06.088Z,38.06
2022-08-11T14:37:21.107Z,37.17
2022-08-11T14:42:12.760Z,37.63
2022-08-11T14:47:23.638Z,37.28
2022-08-11T14:52:08.806Z,37.04
2022-08-11T14:57:14.170Z,37.28
2022-08-11T15:02:10.689Z,37.03
2022-08-11T15:07:16.946Z,36.81
2022-08-11T15:12:31.306Z,36.56
2022-08-11T15:22:15.494Z,36.58
2022-08-11T15:27:26.752Z,36.19
2022-08-11T15:32:16.331Z,35.52
2022-08-11T15:37:16.937Z,35.34
2022-08-11T15:42:26.981Z,35.16
2022-08-11T15:47:27.486Z,35.17
2022-08-11T15:52:30.457Z,34.88
2022-08-11T16:11:41.288Z,34.22
2022-08-11T16:27:06.358Z,33.58
2022-08-11T16:31:29.309Z,34.00
2022-08-11T16:41:37.628Z,33.71
2022-08-11T16:46:36.551Z,32.47
2022-08-11T16:51:38.323Z,32.57
2022-08-11T16:56:37.933Z,33.31
2022-08-11T17:01:38.490Z,33.38
2022-08-11T17:06:37.444Z,33.40
2022-08-11T17:11:37.082Z,34.01
2022-08-11T17:16:37.474Z,34.28
2022-08-11T17:21:43.996Z,33.75
2022-08-11T17:26:38.934Z,34.13
2022-08-11T17:31:45.575Z,33.98
2022-08-11T17:36:44.692Z,33.63
2022-08-11T17:41:40.766Z,33.57
2022-08-11T17:46:44.079Z,33.56
2022-08-11T17:51:45.127Z,33.48
2022-08-11T17:56:45.477Z,33.53
2022-08-11T18:01:46.086Z,33.90
2022-08-11T18:06:47.636Z,34.02
2022-08-11T18:12:07.214Z,34.48
2022-08-11T18:16:48.487Z,34.61
2022-08-11T18:22:00.659Z,35.34
2022-08-11T18:26:51.756Z,36.55
2022-08-11T18:31:55.777Z,36.12
2022-08-11T18:36:53.182Z,36.01
2022-08-11T18:41:53.702Z,36.36
2022-08-11T18:46:54.377Z,37.43
2022-08-11T18:51:55.207Z,38.18
2022-08-11T18:57:00.569Z,38.79
2022-08-11T19:01:56.815Z,39.45
2022-08-11T19:06:59.735Z,39.96
2022-08-11T19:12:01.940Z,40.51
2022-08-11T19:17:03.674Z,40.98
2022-08-11T19:22:03.160Z,41.15
2022-08-11T19:27:09.626Z,41.56
2022-08-11T19:32:02.928Z,41.80
2022-08-11T19:37:04.778Z,42.00
2022-08-11T19:42:04.339Z,42.24
2022-08-11T19:47:06.864Z,42.46
2022-08-11T19:52:12.215Z,42.51
2022-08-11T19:57:12.139Z,42.48
2022-08-11T20:02:13.113Z,42.66
2022-08-11T20:07:10.415Z,42.85
2022-08-11T20:12:11.080Z,42.99
2022-08-11T20:17:14.794Z,43.34
2022-08-11T20:22:12.410Z,43.59
2022-08-11T20:27:19.041Z,43.82
2022-08-11T20:32:13.755Z,43.86
2022-08-11T20:37:17.525Z,44.31
2022-08-11T20:44:07.292Z,44.68
2022-08-11T20:47:18.441Z,45.10
2022-08-11T20:52:19.371Z,45.31
2022-08-11T20:57:19.776Z,45.42
2022-08-11T21:02:21.012Z,45.36
2022-08-11T21:07:23.504Z,44.98
2022-08-11T21:12:21.916Z,45.31
2022-08-11T21:17:27.346Z,44.91
2022-08-11T21:22:27.774Z,44.96
2022-08-11T21:27:26.797Z,45.02
2022-08-11T21:32:27.487Z,45.05
2022-08-11T21:37:28.137Z,45.54
2022-08-11T21:42:28.793Z,45.66
2022-08-11T21:47:42.604Z,45.79
2022-08-11T21:52:30.345Z,46.13
2022-08-11T21:57:30.791Z,46.47
2022-08-11T22:02:31.355Z,46.66
2022-08-11T22:07:32.078Z,46.91
2022-08-11T22:12:34.598Z,46.89
2022-08-11T22:17:33.459Z,46.91
2022-08-11T22:22:34.753Z,47.01
2022-08-11T22:27:35.515Z,47.16
2022-08-11T22:46:41.448Z,48.47
2022-08-11T22:51:40.673Z,48.96
2022-08-11T22:56:41.205Z,49.38
2022-08-11T23:01:54.821Z,49.61
2022-08-11T23:06:43.173Z,49.53
2022-08-11T23:11:57.175Z,49.79
2022-08-11T23:16:44.115Z,50.29
2022-08-11T23:21:45.324Z,50.17
2022-08-11T23:26:45.924Z,50.06
2022-08-11T23:31:51.149Z,50.20
2022-08-11T23:36:48.041Z,50.35
2022-08-11T23:41:47.625Z,50.52
2022-08-11T23:46:48.235Z,50.92
2022-08-11T23:51:51.711Z,50.97
2022-08-11T23:56:52.488Z,51.49
